Time;durP1;ratioP1;P1;durP2;ratioP2;P2;SDS_P1;SDS_P2;PMS_P1;PMS_P2;Temp;Humidity;BMP_temperature;BMP_pressure;BME280_temperature;BME280_humidity;BME280_pressure;Samples;Min_cycle;Max_cycle;Signal;HPM_P1;HPM_P2
2021/04/03 00:00:28;;;;;;;7.18;4.80;;;5.00;95.50;;;;;;2106365;28;20161;-70
2021/04/03 00:01:29;;;;;;;9.48;4.65;;;5.00;95.40;;;;;;2105799;28;20625;-71
2021/04/03 00:02:29;;;;;;;8.10;4.70;;;5.00;95.60;;;;;;2105594;28;20020;-71
2021/04/03 00:03:30;;;;;;;7.35;4.35;;;5.00;95.60;;;;;;2105386;28;20443;-70
2021/04/03 00:04:31;;;;;;;8.30;4.45;;;4.90;95.60;;;;;;2105685;28;20032;-71
2021/04/03 00:05:32;;;;;;;6.30;4.20;;;4.90;95.70;;;;;;2106241;28;20047;-71
2021/04/03 00:06:33;;;;;;;5.68;4.20;;;4.90;95.80;;;;;;2106322;28;20024;-71
2021/04/03 00:07:34;;;;;;;7.57;4.60;;;4.90;95.80;;;;;;2106344;28;20066;-70
2021/04/03 00:08:34;;;;;;;7.50;4.18;;;4.90;95.90;;;;;;2106339;28;20028;-71
2021/04/03 00:09:35;;;;;;;7.20;4.15;;;4.90;96.10;;;;;;2105595;28;20098;-70
2021/04/03 00:10:43;;;;;;;7.35;4.00;;;5.00;95.80;;;;;;2106407;28;20063;-70
2021/04/03 00:11:43;;;;;;;7.22;4.10;;;5.00;95.90;;;;;;2106400;28;20028;-71
2021/04/03 00:12:44;;;;;;;6.13;3.97;;;4.90;95.90;;;;;;2105674;28;20110;-71
2021/04/03 00:13:45;;;;;;;6.40;4.30;;;4.90;95.90;;;;;;2105661;28;20154;-71
2021/04/03 00:14:46;;;;;;;6.70;4.07;;;4.90;95.90;;;;;;2105914;28;20028;-69
2021/04/03 00:15:47;;;;;;;6.43;3.92;;;4.90;96.60;;;;;;2097416;28;20023;-71
2021/04/03 00:16:48;;;;;;;5.07;3.60;;;4.90;96.20;;;;;;2097320;28;20032;-70
2021/04/03 00:17:49;;;;;;;4.95;3.75;;;4.90;96.40;;;;;;2105368;28;20398;-69
2021/04/03 00:18:49;;;;;;;5.70;4.05;;;4.90;96.50;;;;;;2106202;28;20035;-71
2021/04/03 00:19:54;;;;;;;6.15;4.03;;;4.90;96.50;;;;;;2106223;28;20491;-70
2021/04/03 00:20:55;;;;;;;7.10;4.35;;;4.90;96.60;;;;;;2106315;28;20024;-71
2021/04/03 00:21:56;;;;;;;6.05;4.03;;;4.90;96.80;;;;;;2106172;28;20078;-71
2021/04/03 00:22:57;;;;;;;7.45;4.10;;;4.90;96.80;;;;;;2106179;28;20070;-70
2021/04/03 00:23:57;;;;;;;6.53;4.25;;;4.90;96.90;;;;;;2105185;28;20039;-71
2021/04/03 00:24:58;;;;;;;6.85;4.15;;;4.90;97.00;;;;;;2105612;28;20426;-70
2021/04/03 00:25:58;;;;;;;6.43;4.13;;;4.90;96.90;;;;;;2105537;28;20028;-71
2021/04/03 00:26:59;;;;;;;6.80;4.20;;;4.90;97.00;;;;;;2105652;28;20036;-72
2021/04/03 00:28:00;;;;;;;6.85;4.50;;;4.90;97.20;;;;;;2105491;28;20028;-70
2021/04/03 00:29:01;;;;;;;7.15;4.60;;;4.90;97.10;;;;;;2105558;28;20030;-71
2021/04/03 00:30:14;;;;;;;6.28;4.55;;;4.90;97.20;;;;;;2105461;28;20471;-70
2021/04/03 00:31:15;;;;;;;6.72;4.47;;;4.90;97.40;;;;;;2106261;28;20089;-71
2021/04/03 00:32:15;;;;;;;7.22;4.75;;;4.90;97.40;;;;;;2105461;28;20028;-71
2021/04/03 00:33:16;;;;;;;7.47;4.85;;;4.90;97.30;;;;;;2105215;28;20526;-69
2021/04/03 00:34:17;;;;;;;7.38;4.88;;;4.90;97.40;;;;;;2106060;28;20024;-71
2021/04/03 00:35:32;;;;;;;6.25;4.70;;;4.90;97.70;;;;;;2106117;28;20107;-70
2021/04/03 00:36:33;;;;;;;6.90;4.70;;;4.90;97.50;;;;;;2106224;28;20016;-69
2021/04/03 00:37:33;;;;;;;6.97;5.07;;;4.90;97.60;;;;;;2106285;28;20031;-71
2021/04/03 00:38:34;;;;;;;6.28;4.60;;;4.90;97.90;;;;;;2106139;28;20036;-70
2021/04/03 00:39:34;;;;;;;8.30;5.35;;;5.00;97.70;;;;;;2106153;28;20044;-70
2021/04/03 00:40:40;;;;;;;9.00;5.40;;;4.90;97.30;;;;;;2106005;28;20103;-70
2021/04/03 00:41:41;;;;;;;7.57;5.47;;;4.90;97.40;;;;;;2106171;28;20066;-70
2021/04/03 00:42:43;;;;;;;9.18;5.50;;;4.90;97.60;;;;;;2105921;28;20084;-71
2021/04/03 00:43:43;;;;;;;9.02;5.32;;;4.90;97.60;;;;;;2105748;28;20059;-71
2021/04/03 00:44:48;;;;;;;8.82;5.20;;;5.00;97.90;;;;;;2105502;28;20047;-70
2021/04/03 00:45:50;;;;;;;10.27;5.68;;;5.00;98.00;;;;;;2097624;28;20450;-70
2021/04/03 00:46:51;;;;;;;10.07;5.35;;;5.00;97.70;;;;;;2105464;28;20772;-70
2021/04/03 00:47:51;;;;;;;8.82;5.53;;;5.00;97.60;;;;;;2105385;28;20032;-70
2021/04/03 00:48:52;;;;;;;10.45;6.05;;;5.00;97.50;;;;;;2105452;28;20087;-70
2021/04/03 00:49:53;;;;;;;8.07;5.35;;;5.00;97.70;;;;;;2105918;28;20395;-69
2021/04/03 00:50:54;;;;;;;9.07;5.20;;;5.00;97.90;;;;;;2105356;28;20297;-69
2021/04/03 00:52:06;;;;;;;9.50;5.60;;;5.00;97.90;;;;;;2097693;28;20028;-70
2021/04/03 00:53:09;;;;;;;8.68;5.70;;;5.00;97.70;;;;;;2097973;28;20021;-70
2021/04/03 00:54:12;;;;;;;10.02;6.32;;;5.00;97.70;;;;;;2105502;28;20004;-71
2021/04/03 00:55:14;;;;;;;9.95;5.60;;;5.00;97.50;;;;;;2106005;28;20065;-71
2021/04/03 00:56:15;;;;;;;8.05;5.70;;;5.00;97.60;;;;;;2105364;28;20035;-69
2021/04/03 00:57:17;;;;;;;9.82;5.85;;;5.00;97.80;;;;;;2097090;28;20557;-72
2021/04/03 00:58:18;;;;;;;10.35;6.43;;;5.00;97.70;;;;;;2105458;28;20024;-70
2021/04/03 00:59:19;;;;;;;10.52;6.28;;;5.00;97.80;;;;;;2105344;28;20058;-70
2021/04/03 01:00:20;;;;;;;8.73;6.32;;;5.00;97.90;;;;;;2097065;28;20025;-70
2021/04/03 01:01:21;;;;;;;10.35;6.20;;;5.00;97.70;;;;;;2105478;28;20141;-71
2021/04/03 01:02:24;;;;;;;10.55;6.05;;;4.90;97.60;;;;;;2105376;28;20012;-71
2021/04/03 01:03:26;;;;;;;8.40;5.88;;;4.90;97.80;;;;;;2105106;28;20031;-70
2021/04/03 01:04:34;;;;;;;9.77;5.70;;;5.00;97.90;;;;;;2105297;28;20028;-70
2021/04/03 01:05:39;;;;;;;9.02;5.97;;;5.00;97.70;;;;;;2097688;28;20533;-71
2021/04/03 01:06:41;;;;;;;9.80;6.10;;;5.00;97.80;;;;;;2097159;28;20025;-71
2021/04/03 01:07:42;;;;;;;10.75;6.28;;;5.00;97.90;;;;;;2096908;28;20515;-73
2021/04/03 01:08:44;;;;;;;10.80;6.63;;;5.10;98.00;;;;;;2097009;28;20476;-70
2021/04/03 01:09:45;;;;;;;11.18;6.30;;;5.00;98.00;;;;;;2096776;28;20391;-70
2021/04/03 01:10:52;;;;;;;10.75;6.45;;;5.10;97.90;;;;;;2105183;28;20115;-70
2021/04/03 01:12:06;;;;;;;11.45;6.80;;;5.10;98.00;;;;;;2105276;28;20031;-70
2021/04/03 01:13:30;;;;;;;12.18;6.63;;;5.10;98.10;;;;;;2105197;28;20077;-71
2021/04/03 01:15:12;;;;;;;12.98;7.15;;;5.00;98.10;;;;;;2105331;28;20028;-70
2021/04/03 01:16:24;;;;;;;12.48;6.47;;;5.10;98.40;;;;;;2101538;28;20431;-71
2021/04/03 01:17:40;;;;;;;11.95;6.70;;;5.10;98.50;;;;;;2098306;28;20067;-70
2021/04/03 01:19:20;;;;;;;13.38;7.05;;;5.10;98.40;;;;;;2105410;28;20035;-71
2021/04/03 01:20:40;;;;;;;11.50;6.93;;;5.10;98.50;;;;;;2105857;28;20028;-70
2021/04/03 01:22:17;;;;;;;11.25;6.85;;;5.10;98.60;;;;;;2105372;28;20028;-72
2021/04/03 01:23:33;;;;;;;10.35;6.90;;;5.10;98.70;;;;;;2105912;28;20062;-71
2021/04/03 01:24:53;;;;;;;14.80;7.80;;;5.10;98.70;;;;;;2106236;28;20109;-71
2021/04/03 01:25:59;;;;;;;12.88;7.22;;;5.10;98.60;;;;;;2106757;28;20017;-71
2021/04/03 01:27:13;;;;;;;13.20;6.78;;;5.10;98.30;;;;;;2106302;28;20078;-71
2021/04/03 01:29:10;;;;;;;11.23;6.47;;;5.10;98.30;;;;;;2106944;28;20028;-70
2021/04/03 01:30:17;;;;;;;10.73;6.55;;;5.10;98.20;;;;;;2070918;28;20119;-71
2021/04/03 01:31:33;;;;;;;11.18;6.93;;;5.10;98.50;;;;;;2071605;28;20041;-71
2021/04/03 01:32:44;;;;;;;13.25;7.18;;;5.10;98.40;;;;;;2082344;28;20059;-71
2021/04/03 01:33:47;;;;;;;10.75;7.03;;;5.10;98.30;;;;;;2089361;28;20033;-71
2021/04/03 01:34:48;;;;;;;14.10;7.25;;;5.10;98.50;;;;;;2096896;28;20424;-72
2021/04/03 01:36:06;;;;;;;15.18;7.50;;;5.10;98.50;;;;;;2105605;28;20035;-71
2021/04/03 01:37:13;;;;;;;14.32;7.18;;;5.10;98.40;;;;;;2105677;28;20479;-71
2021/04/03 01:38:41;;;;;;;12.27;7.32;;;5.10;98.80;;;;;;2104997;28;20020;-70
2021/04/03 01:39:47;;;;;;;14.82;7.45;;;5.20;98.50;;;;;;2097186;28;20137;-71
2021/04/03 01:40:52;;;;;;;17.65;8.05;;;5.20;98.40;;;;;;2097087;28;20530;-71
2021/04/03 01:41:57;;;;;;;15.23;8.07;;;5.20;98.50;;;;;;2105122;28;20097;-70
2021/04/03 01:43:05;;;;;;;14.43;8.00;;;5.20;98.40;;;;;;2104835;28;20028;-71
2021/04/03 01:44:10;;;;;;;16.95;8.63;;;5.20;98.40;;;;;;2104874;28;20016;-70
2021/04/03 01:45:13;;;;;;;16.05;8.18;;;5.20;98.40;;;;;;2105584;28;20107;-70
2021/04/03 01:46:15;;;;;;;14.88;8.32;;;5.20;98.50;;;;;;2104911;28;20032;-71
2021/04/03 01:47:22;;;;;;;16.65;8.18;;;5.20;98.40;;;;;;2105103;28;20020;-70
2021/04/03 01:48:24;;;;;;;13.25;7.75;;;5.30;98.50;;;;;;2105510;28;20517;-70
2021/04/03 01:49:26;;;;;;;15.57;7.82;;;5.30;98.60;;;;;;2105610;28;20028;-70
2021/04/03 01:50:30;;;;;;;13.02;8.13;;;5.30;98.60;;;;;;2104831;28;20027;-71
2021/04/03 01:51:32;;;;;;;18.05;8.82;;;5.30;98.70;;;;;;2096829;28;20029;-70
2021/04/03 01:52:34;;;;;;;14.90;8.18;;;5.30;98.60;;;;;;2104866;28;20024;-71
2021/04/03 01:53:35;;;;;;;15.40;8.30;;;5.30;98.60;;;;;;2105149;28;20016;-71
2021/04/03 01:54:40;;;;;;;14.90;8.70;;;5.30;98.60;;;;;;2105423;28;20035;-72
2021/04/03 01:55:42;;;;;;;13.80;8.18;;;5.40;98.80;;;;;;2105555;28;20031;-70
2021/04/03 01:56:46;;;;;;;18.30;8.88;;;5.40;98.80;;;;;;2104864;28;20091;-71
2021/04/03 01:57:50;;;;;;;18.33;9.00;;;5.40;98.60;;;;;;2097265;28;20029;-70
2021/04/03 01:58:54;;;;;;;15.55;8.60;;;5.40;98.50;;;;;;2105019;28;20069;-70
2021/04/03 01:59:54;;;;;;;17.40;9.48;;;5.40;98.50;;;;;;2105467;28;20035;-70
2021/04/03 02:01:08;;;;;;;16.98;8.93;;;5.40;98.50;;;;;;2105540;28;20083;-70
2021/04/03 02:02:09;;;;;;;17.63;8.73;;;5.40;98.50;;;;;;2105404;28;20034;-70
2021/04/03 02:03:10;;;;;;;16.95;8.77;;;5.40;98.50;;;;;;2104580;28;20047;-74
2021/04/03 02:04:13;;;;;;;18.77;9.13;;;5.40;98.50;;;;;;2105039;28;20076;-70
2021/04/03 02:05:21;;;;;;;17.52;9.52;;;5.40;98.40;;;;;;2105654;28;20040;-71
2021/04/03 02:06:32;;;;;;;20.02;9.68;;;5.40;98.20;;;;;;2096511;28;20044;-71
2021/04/03 02:07:47;;;;;;;20.25;9.93;;;5.40;98.30;;;;;;2098316;28;20024;-70
2021/04/03 02:08:48;;;;;;;19.63;9.55;;;5.40;98.10;;;;;;2096481;28;20061;-70
2021/04/03 02:10:06;;;;;;;18.05;9.25;;;5.40;98.20;;;;;;2092047;28;20033;-70
2021/04/03 02:11:15;;;;;;;16.80;9.20;;;5.40;98.40;;;;;;2097973;28;20522;-71
2021/04/03 02:12:19;;;;;;;17.45;9.20;;;5.40;98.30;;;;;;2104915;28;20031;-71
2021/04/03 02:13:40;;;;;;;17.85;9.68;;;5.40;98.30;;;;;;2098925;28;20017;-70
2021/04/03 02:14:44;;;;;;;21.30;9.95;;;5.40;98.50;;;;;;2104955;28;20517;-69
2021/04/03 02:15:49;;;;;;;21.50;10.68;;;5.40;98.40;;;;;;2105464;28;20028;-70
2021/04/03 02:16:52;;;;;;;19.13;9.98;;;5.50;98.50;;;;;;2105415;28;20057;-70
2021/04/03 02:17:56;;;;;;;21.77;9.95;;;5.50;98.60;;;;;;2105471;28;20020;-71
2021/04/03 02:19:00;;;;;;;18.13;9.80;;;5.50;98.50;;;;;;2104741;28;20057;-69
2021/04/03 02:20:04;;;;;;;18.65;10.02;;;5.50;98.50;;;;;;2104874;28;20028;-71
2021/04/03 02:21:06;;;;;;;21.85;10.45;;;5.50;98.50;;;;;;2104751;28;20020;-70
2021/04/03 02:22:07;;;;;;;21.02;10.40;;;5.50;98.40;;;;;;2104883;28;20032;-70
2021/04/03 02:23:09;;;;;;;17.92;9.48;;;5.50;98.40;;;;;;2104510;28;20030;-72
2021/04/03 02:24:13;;;;;;;21.58;9.93;;;5.50;98.40;;;;;;2096623;28;20106;-70
2021/04/03 02:25:15;;;;;;;18.83;9.63;;;5.50;98.40;;;;;;2105261;28;20023;-70
2021/04/03 02:26:16;;;;;;;22.73;10.90;;;5.50;98.40;;;;;;2105505;28;20028;-70
2021/04/03 02:27:17;;;;;;;20.50;10.27;;;5.60;98.30;;;;;;2104756;28;20024;-71
2021/04/03 02:28:18;;;;;;;23.67;11.35;;;5.50;98.20;;;;;;2104795;28;20042;-70
2021/04/03 02:29:23;;;;;;;26.92;11.43;;;5.60;98.10;;;;;;2104592;28;20491;-70
2021/04/03 02:30:24;;;;;;;25.98;11.52;;;5.50;98.20;;;;;;2104802;28;20027;-71
2021/04/03 02:31:29;;;;;;;24.20;11.38;;;5.50;97.70;;;;;;2105435;28;20028;-70
2021/04/03 02:32:30;;;;;;;22.42;11.02;;;5.50;97.80;;;;;;2105264;28;20066;-69
2021/04/03 02:33:31;;;;;;;17.15;10.48;;;5.50;97.90;;;;;;2105052;28;20027;-71
2021/04/03 02:34:33;;;;;;;22.55;10.98;;;5.50;98.00;;;;;;2104721;28;20076;-69
2021/04/03 02:35:34;;;;;;;21.77;11.00;;;5.50;98.10;;;;;;2096369;28;20032;-70
2021/04/03 02:36:38;;;;;;;22.85;10.93;;;5.50;97.90;;;;;;2104820;28;20049;-71
2021/04/03 02:37:39;;;;;;;25.63;11.52;;;5.60;97.90;;;;;;2105499;28;20024;-70
2021/04/03 02:38:41;;;;;;;23.42;12.40;;;5.60;97.70;;;;;;2104654;28;20020;-69
2021/04/03 02:39:45;;;;;;;23.40;12.23;;;5.60;97.70;;;;;;2096812;28;20029;-71
2021/04/03 02:40:47;;;;;;;23.38;11.98;;;5.60;97.50;;;;;;2096277;28;20029;-69
2021/04/03 02:42:08;;;;;;;24.88;12.10;;;5.60;97.60;;;;;;2096285;28;20547;-70
2021/04/03 02:43:35;;;;;;;23.60;12.07;;;5.50;97.20;;;;;;2104928;28;20364;-73
2021/04/03 02:44:46;;;;;;;24.13;11.95;;;5.50;97.20;;;;;;2104770;28;20024;-69
2021/04/03 02:46:12;;;;;;;25.92;12.23;;;5.60;97.40;;;;;;2096297;28;20115;-70
2021/04/03 02:47:18;;;;;;;27.88;12.07;;;5.60;97.50;;;;;;2100237;28;20476;-70
2021/04/03 02:48:22;;;;;;;28.13;12.20;;;5.60;97.50;;;;;;2105588;28;20027;-70
2021/04/03 02:49:31;;;;;;;25.55;12.25;;;5.60;97.50;;;;;;2105611;28;20020;-71
2021/04/03 02:50:37;;;;;;;24.45;12.10;;;5.60;97.40;;;;;;2104805;28;20094;-70
2021/04/03 02:51:42;;;;;;;27.45;12.40;;;5.60;97.30;;;;;;2097232;28;20056;-71
2021/04/03 02:52:51;;;;;;;25.63;12.15;;;5.60;97.10;;;;;;2104996;28;20028;-70
2021/04/03 02:53:55;;;;;;;26.65;11.98;;;5.60;97.10;;;;;;2104351;28;20057;-69
2021/04/03 02:54:58;;;;;;;28.25;12.80;;;5.60;97.10;;;;;;2104844;28;20104;-70
2021/04/03 02:56:05;;;;;;;26.05;12.38;;;5.60;97.00;;;;;;2104640;28;20024;-71
2021/04/03 02:57:12;;;;;;;23.60;12.48;;;5.60;97.10;;;;;;2104783;28;20479;-70
2021/04/03 02:58:17;;;;;;;26.65;13.13;;;5.60;97.20;;;;;;2104786;28;20514;-70
2021/04/03 02:59:24;;;;;;;30.92;12.70;;;5.60;97.30;;;;;;2104842;28;20032;-71
2021/04/03 03:00:27;;;;;;;29.55;13.50;;;5.60;97.30;;;;;;2105401;28;20053;-70
2021/04/03 03:01:28;;;;;;;28.85;13.13;;;5.60;97.20;;;;;;2105522;28;20491;-69
2021/04/03 03:02:33;;;;;;;26.92;13.10;;;5.50;97.10;;;;;;2105315;28;20028;-70
2021/04/03 03:03:36;;;;;;;27.98;12.90;;;5.50;97.00;;;;;;2104365;28;20020;-72
2021/04/03 03:04:39;;;;;;;29.25;12.98;;;5.50;97.10;;;;;;2104794;28;20028;-71
2021/04/03 03:05:42;;;;;;;26.55;12.85;;;5.50;97.10;;;;;;2105222;28;20111;-70
2021/04/03 03:06:46;;;;;;;24.75;13.05;;;5.50;97.00;;;;;;2104741;28;20344;-69
2021/04/03 03:07:51;;;;;;;27.35;13.45;;;5.60;97.20;;;;;;2104816;28;20016;-69
2021/04/03 03:08:55;;;;;;;30.42;13.52;;;5.60;96.50;;;;;;2105438;28;20031;-70
2021/04/03 03:10:00;;;;;;;27.52;13.02;;;5.60;96.50;;;;;;2104673;28;20119;-70
2021/04/03 03:11:03;;;;;;;23.50;12.73;;;5.60;96.30;;;;;;2104660;28;20012;-70
2021/04/03 03:12:05;;;;;;;31.40;12.85;;;5.60;96.30;;;;;;2105440;28;20024;-72
2021/04/03 03:13:17;;;;;;;27.45;12.50;;;5.60;96.20;;;;;;2104557;28;20016;-71
2021/04/03 03:14:19;;;;;;;27.40;12.98;;;5.60;96.40;;;;;;2104839;28;20484;-71
2021/04/03 03:15:27;;;;;;;25.88;12.43;;;5.60;96.60;;;;;;2105217;28;20016;-72
2021/04/03 03:16:29;;;;;;;29.60;13.13;;;5.60;96.50;;;;;;2105215;28;20058;-72
2021/04/03 03:17:32;;;;;;;27.15;13.50;;;5.60;96.30;;;;;;2105163;28;20561;-72
2021/04/03 03:18:39;;;;;;;28.33;13.27;;;5.60;96.30;;;;;;2104622;28;20111;-72
2021/04/03 03:19:41;;;;;;;30.00;13.60;;;5.60;96.40;;;;;;2104775;28;20107;-71
2021/04/03 03:20:45;;;;;;;32.53;13.68;;;5.60;96.60;;;;;;2105180;28;20028;-72
2021/04/03 03:21:49;;;;;;;31.80;13.93;;;5.60;96.60;;;;;;2104826;28;20148;-72
2021/04/03 03:22:52;;;;;;;33.05;14.57;;;5.50;96.60;;;;;;2104326;28;20028;-71
2021/04/03 03:23:56;;;;;;;30.70;14.02;;;5.50;96.70;;;;;;2104092;28;20062;-72
2021/04/03 03:24:57;;;;;;;28.77;13.63;;;5.60;96.60;;;;;;2104398;28;20020;-72
2021/04/03 03:25:58;;;;;;;30.30;13.30;;;5.60;96.40;;;;;;2105030;28;20103;-71
2021/04/03 03:27:06;;;;;;;31.23;13.38;;;5.60;96.30;;;;;;2104412;28;20024;-72
2021/04/03 03:28:07;;;;;;;32.33;14.18;;;5.60;96.40;;;;;;2096181;28;20579;-72
2021/04/03 03:29:11;;;;;;;32.55;14.55;;;5.60;96.40;;;;;;2104516;28;20585;-71
2021/04/03 03:30:15;;;;;;;29.27;14.73;;;5.50;96.40;;;;;;2104348;28;20079;-72
2021/04/03 03:31:16;;;;;;;33.22;14.88;;;5.50;96.50;;;;;;2104374;28;20567;-71
2021/04/03 03:32:17;;;;;;;27.83;14.65;;;5.60;96.70;;;;;;2104491;28;20039;-72
2021/04/03 03:33:27;;;;;;;32.20;14.15;;;5.60;96.60;;;;;;2104803;28;20034;-72
2021/04/03 03:34:30;;;;;;;33.03;14.05;;;5.60;96.50;;;;;;2105063;28;20031;-72
2021/04/03 03:35:34;;;;;;;28.83;14.15;;;5.60;96.40;;;;;;2104459;28;20554;-72
2021/04/03 03:36:37;;;;;;;33.35;14.95;;;5.60;96.40;;;;;;2104422;28;20024;-72
2021/04/03 03:37:42;;;;;;;31.15;14.73;;;5.60;96.40;;;;;;2104419;28;20031;-72
2021/04/03 03:38:43;;;;;;;32.00;14.63;;;5.60;96.30;;;;;;2104554;28;20453;-72
2021/04/03 03:39:48;;;;;;;31.20;14.18;;;5.60;96.50;;;;;;2104355;28;20509;-71
2021/04/03 03:40:54;;;;;;;29.65;13.55;;;5.50;96.50;;;;;;2104446;28;20028;-71
2021/04/03 03:41:58;;;;;;;32.22;14.40;;;5.50;96.50;;;;;;2104331;28;20028;-71
2021/04/03 03:43:02;;;;;;;29.25;13.52;;;5.60;96.60;;;;;;2104214;28;20012;-72
2021/04/03 03:44:08;;;;;;;29.73;13.90;;;5.60;96.40;;;;;;2104147;28;20438;-72
2021/04/03 03:45:11;;;;;;;31.50;14.32;;;5.60;96.30;;;;;;2104563;28;20040;-72
2021/04/03 03:46:13;;;;;;;31.45;14.48;;;5.60;96.40;;;;;;2104249;28;20534;-72
2021/04/03 03:47:14;;;;;;;29.88;14.13;;;5.50;96.60;;;;;;2096025;28;20036;-72
2021/04/03 03:48:17;;;;;;;29.20;13.98;;;5.50;96.60;;;;;;2104494;28;20039;-71
2021/04/03 03:49:17;;;;;;;26.17;13.80;;;5.50;96.60;;;;;;2104982;28;20483;-71
2021/04/03 03:50:19;;;;;;;29.45;13.48;;;5.50;96.60;;;;;;2104254;28;20504;-72
2021/04/03 03:51:23;;;;;;;32.38;14.73;;;5.50;96.60;;;;;;2096245;28;20450;-72
2021/04/03 03:52:31;;;;;;;32.75;14.25;;;5.50;96.70;;;;;;2104303;28;20054;-72
2021/04/03 03:53:33;;;;;;;29.83;13.48;;;5.60;96.50;;;;;;2105552;28;20075;-70
2021/04/03 03:54:35;;;;;;;31.77;13.38;;;5.60;96.30;;;;;;2106425;28;20039;-72
2021/04/03 03:55:36;;;;;;;25.60;13.13;;;5.60;96.20;;;;;;2106384;28;20574;-71
2021/04/03 03:56:41;;;;;;;28.48;13.45;;;5.60;96.20;;;;;;2106465;28;20380;-71
2021/04/03 03:57:42;;;;;;;26.73;14.15;;;5.60;96.10;;;;;;2106360;28;20035;-71
2021/04/03 03:58:44;;;;;;;30.15;13.23;;;5.60;96.10;;;;;;2106458;28;20132;-71
2021/04/03 03:59:45;;;;;;;27.73;13.05;;;5.60;96.20;;;;;;2105608;28;20054;-70
2021/04/03 04:00:47;;;;;;;28.38;13.30;;;5.60;96.30;;;;;;2105829;28;20047;-71
2021/04/03 04:01:51;;;;;;;28.98;13.82;;;5.60;96.30;;;;;;2105605;28;20086;-71
2021/04/03 04:02:51;;;;;;;31.33;13.38;;;5.50;96.30;;;;;;2097205;28;20021;-71
2021/04/03 04:03:56;;;;;;;32.58;14.50;;;5.60;96.30;;;;;;2105376;28;20020;-73
2021/04/03 04:04:58;;;;;;;29.23;14.00;;;5.60;96.20;;;;;;2106406;28;20028;-73
2021/04/03 04:06:00;;;;;;;29.02;13.75;;;5.60;96.30;;;;;;2106205;28;20163;-71
2021/04/03 04:07:02;;;;;;;26.92;13.60;;;5.60;96.20;;;;;;2106314;28;20082;-71
2021/04/03 04:08:02;;;;;;;31.58;13.52;;;5.60;96.20;;;;;;2106331;28;20111;-71
2021/04/03 04:09:05;;;;;;;29.55;13.57;;;5.50;96.30;;;;;;2097233;28;20036;-71
2021/04/03 04:10:13;;;;;;;29.88;13.30;;;5.60;96.30;;;;;;2098269;28;20032;-71
2021/04/03 04:11:18;;;;;;;28.92;13.43;;;5.60;96.20;;;;;;2105795;28;20020;-70
2021/04/03 04:12:28;;;;;;;27.45;12.90;;;5.60;96.00;;;;;;2106344;28;20069;-71
2021/04/03 04:13:29;;;;;;;28.42;12.93;;;5.60;96.00;;;;;;2105350;28;20130;-71
2021/04/03 04:14:34;;;;;;;27.90;12.95;;;5.70;95.70;;;;;;2105597;28;20493;-71
2021/04/03 04:15:35;;;;;;;28.10;12.27;;;5.70;95.60;;;;;;2105566;28;20035;-72
2021/04/03 04:16:37;;;;;;;24.38;12.60;;;5.70;95.50;;;;;;2105700;28;20111;-71
2021/04/03 04:17:39;;;;;;;27.58;13.00;;;5.70;95.50;;;;;;2097421;28;20043;-71
2021/04/03 04:18:41;;;;;;;27.80;12.55;;;5.70;95.50;;;;;;2088958;28;20036;-71
2021/04/03 04:19:48;;;;;;;31.75;13.05;;;5.70;95.50;;;;;;2098457;28;20028;-71
2021/04/03 04:20:50;;;;;;;27.73;13.02;;;5.60;95.50;;;;;;2105501;28;20063;-71
2021/04/03 04:22:01;;;;;;;27.02;12.65;;;5.70;95.60;;;;;;2105699;28;20028;-71
2021/04/03 04:23:03;;;;;;;31.17;13.27;;;5.70;95.30;;;;;;2105969;28;20518;-71
2021/04/03 04:24:11;;;;;;;25.63;12.63;;;5.70;95.10;;;;;;2097250;28;20032;-71
2021/04/03 04:25:14;;;;;;;29.95;13.48;;;5.70;95.20;;;;;;2098531;28;20449;-71
2021/04/03 04:26:18;;;;;;;25.45;13.05;;;5.60;95.20;;;;;;2105540;28;20077;-71
2021/04/03 04:27:23;;;;;;;27.10;12.57;;;5.60;95.20;;;;;;2097783;28;20039;-71
2021/04/03 04:28:28;;;;;;;28.92;12.90;;;5.60;95.30;;;;;;2105378;28;20047;-72
2021/04/03 04:29:31;;;;;;;25.70;12.98;;;5.70;95.30;;;;;;2097347;28;20067;-70
2021/04/03 04:30:35;;;;;;;28.23;13.35;;;5.70;95.20;;;;;;2105550;28;20082;-71
2021/04/03 04:31:41;;;;;;;24.90;12.77;;;5.70;95.20;;;;;;2106180;28;20482;-71
2021/04/03 04:32:48;;;;;;;28.90;13.85;;;5.70;95.30;;;;;;2105366;28;20506;-70
2021/04/03 04:33:51;;;;;;;33.25;13.52;;;5.60;95.40;;;;;;2097010;28;20112;-71
2021/04/03 04:34:54;;;;;;;31.17;14.25;;;5.60;95.50;;;;;;2105496;28;20506;-70
2021/04/03 04:35:56;;;;;;;28.20;13.02;;;5.60;95.60;;;;;;2105445;28;20078;-71
2021/04/03 04:37:01;;;;;;;29.95;14.70;;;5.60;95.60;;;;;;2105607;28;20341;-71
2021/04/03 04:38:09;;;;;;;31.58;13.32;;;5.60;95.70;;;;;;2105526;28;20024;-71
2021/04/03 04:39:15;;;;;;;28.60;13.90;;;5.60;95.80;;;;;;2097698;28;20412;-71
2021/04/03 04:40:19;;;;;;;27.80;14.15;;;5.60;95.70;;;;;;2105538;28;20024;-70
2021/04/03 04:41:21;;;;;;;29.88;14.50;;;5.50;95.70;;;;;;2097378;28;20054;-71
2021/04/03 04:42:24;;;;;;;31.02;13.88;;;5.50;95.70;;;;;;2097679;28;20041;-70
2021/04/03 04:43:31;;;;;;;30.33;13.93;;;5.50;95.60;;;;;;2105183;28;20032;-70
2021/04/03 04:44:35;;;;;;;33.35;14.10;;;5.60;95.70;;;;;;2106185;28;20109;-71
2021/04/03 04:45:36;;;;;;;30.63;14.50;;;5.60;95.70;;;;;;2105456;28;20032;-71
2021/04/03 04:46:37;;;;;;;32.75;14.07;;;5.60;95.70;;;;;;2105618;28;20127;-71
2021/04/03 04:47:39;;;;;;;28.30;13.80;;;5.60;95.70;;;;;;2105477;28;20065;-71
2021/04/03 04:48:42;;;;;;;28.77;14.23;;;5.60;95.70;;;;;;2097258;28;20028;-72
2021/04/03 04:49:51;;;;;;;31.92;13.85;;;5.60;95.70;;;;;;2105486;28;20039;-71
2021/04/03 04:50:52;;;;;;;29.23;15.02;;;5.60;95.90;;;;;;2105716;28;20026;-71
2021/04/03 04:51:53;;;;;;;32.13;13.68;;;5.60;95.90;;;;;;2105525;28;20059;-72
2021/04/03 04:52:59;;;;;;;32.78;14.70;;;5.60;95.90;;;;;;2097892;28;20047;-72
2021/04/03 04:54:02;;;;;;;32.30;14.88;;;5.60;95.60;;;;;;2097182;28;20117;-71
2021/04/03 04:55:08;;;;;;;32.42;14.38;;;5.60;95.60;;;;;;2105707;28;20024;-71
2021/04/03 04:56:09;;;;;;;31.55;14.18;;;5.60;95.60;;;;;;2106608;28;20023;-71
2021/04/03 04:57:13;;;;;;;30.60;14.60;;;5.70;95.50;;;;;;2105510;28;20028;-71
2021/04/03 04:58:23;;;;;;;26.35;13.85;;;5.60;95.60;;;;;;2098272;28;20131;-71
2021/04/03 04:59:24;;;;;;;31.20;14.13;;;5.70;95.50;;;;;;2097238;28;20499;-71
2021/04/03 05:00:34;;;;;;;31.25;14.38;;;5.60;95.60;;;;;;2098411;28;20036;-71
2021/04/03 05:01:51;;;;;;;31.17;13.82;;;5.70;95.60;;;;;;2099207;28;20519;-71
2021/04/03 05:02:52;;;;;;;27.58;13.75;;;5.70;95.50;;;;;;2105545;28;20028;-71
2021/04/03 05:03:53;;;;;;;28.98;13.98;;;5.70;95.50;;;;;;2105573;28;20027;-71
2021/04/03 05:04:54;;;;;;;32.53;14.45;;;5.70;95.60;;;;;;2105163;28;20078;-71
2021/04/03 05:05:54;;;;;;;31.42;15.00;;;5.70;95.20;;;;;;2105186;28;20032;-71
2021/04/03 05:06:55;;;;;;;34.30;14.52;;;5.70;94.80;;;;;;2105946;28;20162;-71
2021/04/03 05:07:55;;;;;;;27.85;14.60;;;5.70;94.90;;;;;;2105947;28;20024;-72
2021/04/03 05:08:56;;;;;;;31.10;15.80;;;5.70;95.10;;;;;;2105929;28;20027;-71
2021/04/03 05:09:57;;;;;;;32.67;15.02;;;5.70;95.20;;;;;;2105801;28;20056;-70
2021/04/03 05:10:57;;;;;;;33.25;15.23;;;5.70;95.40;;;;;;2105813;28;20627;-71
2021/04/03 05:12:00;;;;;;;30.25;14.88;;;5.70;95.20;;;;;;2105920;28;20028;-71
2021/04/03 05:13:02;;;;;;;29.88;15.27;;;5.70;95.10;;;;;;2105502;28;20056;-71
2021/04/03 05:14:03;;;;;;;32.20;14.93;;;5.70;95.10;;;;;;2105640;28;20066;-71
2021/04/03 05:15:05;;;;;;;35.13;14.55;;;5.70;95.10;;;;;;2105076;28;20036;-71
2021/04/03 05:16:05;;;;;;;28.48;14.40;;;5.70;95.00;;;;;;2105161;28;20030;-71
2021/04/03 05:17:06;;;;;;;32.42;14.77;;;5.70;95.10;;;;;;2105057;28;20016;-71
2021/04/03 05:18:06;;;;;;;27.65;14.40;;;5.60;95.20;;;;;;2105184;28;20020;-70
2021/04/03 05:19:07;;;;;;;33.25;14.13;;;5.70;95.30;;;;;;2105046;28;20249;-70
2021/04/03 05:20:09;;;;;;;32.13;14.75;;;5.70;95.60;;;;;;2105096;28;20028;-71
2021/04/03 05:21:09;;;;;;;35.63;15.18;;;5.60;95.70;;;;;;2105730;28;20112;-71
2021/04/03 05:22:10;;;;;;;28.95;14.05;;;5.60;95.40;;;;;;2105637;28;20032;-71
2021/04/03 05:23:17;;;;;;;32.13;14.10;;;5.60;95.50;;;;;;2096238;28;20025;-72
2021/04/03 05:24:17;;;;;;;31.52;14.45;;;5.60;95.50;;;;;;2097676;28;20024;-71
2021/04/03 05:25:18;;;;;;;34.42;15.50;;;5.60;95.50;;;;;;2105626;28;20081;-72
2021/04/03 05:26:19;;;;;;;27.65;14.52;;;5.60;95.30;;;;;;2105656;28;20056;-72
2021/04/03 05:27:19;;;;;;;31.15;14.95;;;5.60;95.40;;;;;;2105618;28;20415;-72
2021/04/03 05:28:20;;;;;;;31.60;14.60;;;5.60;95.40;;;;;;2105670;28;20317;-71
2021/04/03 05:29:20;;;;;;;30.25;14.02;;;5.60;95.50;;;;;;2105112;28;20123;-71
2021/04/03 05:30:22;;;;;;;29.83;14.00;;;5.60;95.60;;;;;;2105125;28;20118;-72
2021/04/03 05:31:22;;;;;;;31.92;14.98;;;5.60;95.60;;;;;;2105856;28;20038;-71
2021/04/03 05:32:23;;;;;;;34.35;15.10;;;5.60;95.30;;;;;;2105644;28;20394;-72
2021/04/03 05:33:23;;;;;;;30.65;14.02;;;5.60;95.50;;;;;;2104494;28;20055;-72
2021/04/03 05:34:24;;;;;;;29.83;14.77;;;5.60;95.60;;;;;;2105106;28;20095;-72